createdAt,value
2018-03-24T00:00:32.470Z,38.2
2018-03-24T00:01:22.797Z,38.2
2018-03-24T00:02:12.505Z,38.1
2018-03-24T00:03:02.850Z,38.1
2018-03-24T00:03:54.169Z,38.1
2018-03-24T00:04:44.577Z,38.1
2018-03-24T00:05:34.303Z,38.1
2018-03-24T00:06:24.607Z,38.1
2018-03-24T00:07:14.849Z,38.1
2018-03-24T00:08:04.957Z,38.2
2018-03-24T00:08:54.721Z,38.2
2018-03-24T00:09:45.009Z,38.3
2018-03-24T00:10:35.156Z,38.3
2018-03-24T00:11:25.436Z,38.3
2018-03-24T00:12:15.279Z,38.3
2018-03-24T00:13:05.012Z,38.2
2018-03-24T00:13:54.753Z,38.2
2018-03-24T00:14:45.734Z,38.2
2018-03-24T00:15:34.060Z,38.2
2018-03-24T00:16:25.250Z,38.1
2018-03-24T00:17:14.478Z,38.1
2018-03-24T00:18:03.868Z,38.1
2018-03-24T00:18:53.474Z,38.1
2018-03-24T00:19:43.841Z,38.2
2018-03-24T00:20:34.221Z,38.3
2018-03-24T00:21:24.134Z,38.3
2018-03-24T00:22:14.019Z,38.4
2018-03-24T00:23:05.220Z,38.5
2018-03-24T00:23:55.372Z,38.6
2018-03-24T00:24:44.556Z,38.8
2018-03-24T00:25:34.021Z,38.9
2018-03-24T00:26:24.082Z,38.9
2018-03-24T00:27:16.054Z,38.9
2018-03-24T00:28:05.404Z,39
2018-03-24T00:28:55.421Z,39.1
2018-03-24T00:29:44.866Z,39.1
2018-03-24T00:30:35.314Z,39.1
2018-03-24T00:31:24.503Z,39.1
2018-03-24T00:32:14.560Z,39.1
2018-03-24T00:33:05.173Z,39.1
2018-03-24T00:33:54.161Z,39.1
2018-03-24T00:34:45.833Z,39.1
2018-03-24T00:35:34.722Z,39.1
2018-03-24T00:36:25.112Z,39
2018-03-24T00:37:15.278Z,39
2018-03-24T00:38:05.510Z,38.9
2018-03-24T00:38:56.002Z,38.9
2018-03-24T00:39:45.842Z,38.9
2018-03-24T00:40:35.120Z,38.9
2018-03-24T00:41:26.117Z,38.9
2018-03-24T00:42:16.006Z,38.8
2018-03-24T00:43:06.166Z,38.8
2018-03-24T00:43:55.347Z,38.8
2018-03-24T00:44:45.392Z,38.7
2018-03-24T00:45:36.377Z,38.7
2018-03-24T00:46:26.862Z,38.6
2018-03-24T00:47:16.103Z,38.6
2018-03-24T00:48:06.719Z,38.6
2018-03-24T00:48:56.716Z,38.6
2018-03-24T00:49:46.302Z,38.5
2018-03-24T00:50:36.231Z,38.5
2018-03-24T00:51:25.506Z,38.5
2018-03-24T00:52:15.614Z,38.4
2018-03-24T00:53:06.909Z,38.4
2018-03-24T00:53:57.519Z,38.4
2018-03-24T00:54:46.689Z,38.4
2018-03-24T00:55:36.869Z,38.4
2018-03-24T00:56:26.073Z,38.4
2018-03-24T00:57:15.326Z,38.4
2018-03-24T00:58:05.944Z,38.4
2018-03-24T00:58:57.821Z,38.4
2018-03-24T00:59:47.686Z,38.4
2018-03-24T01:00:36.291Z,38.4
2018-03-24T01:01:27.041Z,38.4
2018-03-24T01:02:15.539Z,38.5
2018-03-24T01:03:08.523Z,38.4
2018-03-24T01:03:57.994Z,38.5
2018-03-24T01:04:47.835Z,38.5
2018-03-24T01:05:36.908Z,38.5
2018-03-24T01:06:27.675Z,38.5
2018-03-24T01:07:17.257Z,38.5
2018-03-24T01:08:06.442Z,38.5
2018-03-24T01:08:57.958Z,38.5
2018-03-24T01:09:47.692Z,38.6
2018-03-24T01:10:37.245Z,38.5
2018-03-24T01:11:26.757Z,38.5
2018-03-24T01:12:16.696Z,38.5
2018-03-24T01:13:07.671Z,38.5
2018-03-24T01:13:56.968Z,38.6
2018-03-24T01:14:47.110Z,38.6
2018-03-24T01:15:38.267Z,38.6
2018-03-24T01:16:28.034Z,38.6
2018-03-24T01:17:17.920Z,38.6
2018-03-24T01:18:08.784Z,38.6
2018-03-24T01:18:58.043Z,38.6
2018-03-24T01:19:47.599Z,38.6
2018-03-24T01:20:39.873Z,38.6
2018-03-24T01:21:30.287Z,38.6
2018-03-24T01:22:19.998Z,38.6
2018-03-24T01:23:09.198Z,38.6
2018-03-24T01:24:00.384Z,38.5
2018-03-24T01:24:50.197Z,38.5
2018-03-24T01:25:40.219Z,38.5
2018-03-24T01:26:30.295Z,38.6
2018-03-24T01:27:19.813Z,38.6
2018-03-24T01:28:10.657Z,38.8
2018-03-24T01:29:00.759Z,38.9
2018-03-24T01:29:50.240Z,39
2018-03-24T01:30:40.278Z,39.1
2018-03-24T01:31:30.639Z,39.2
2018-03-24T01:32:21.026Z,39.3
2018-03-24T01:33:10.489Z,39.3
2018-03-24T01:34:00.519Z,39.4
2018-03-24T01:34:51.146Z,39.4
2018-03-24T01:35:41.237Z,39.4
2018-03-24T01:36:31.051Z,39.4
2018-03-24T01:37:20.737Z,39.4
2018-03-24T01:38:10.518Z,39.4
2018-03-24T01:38:59.850Z,39.3
2018-03-24T01:39:50.015Z,39.3
2018-03-24T01:40:39.756Z,39.2
2018-03-24T01:41:29.812Z,39.1
2018-03-24T01:42:20.269Z,39.1
2018-03-24T01:43:09.000Z,39
2018-03-24T01:43:59.313Z,38.9
2018-03-24T01:44:49.850Z,38.9
2018-03-24T01:45:41.001Z,38.9
2018-03-24T01:46:30.598Z,38.9
2018-03-24T01:47:20.993Z,38.9
2018-03-24T01:48:10.526Z,38.9
2018-03-24T01:49:00.678Z,38.8
2018-03-24T01:49:50.359Z,38.8
2018-03-24T01:50:40.300Z,38.8
2018-03-24T01:51:31.033Z,38.8
2018-03-24T01:52:20.273Z,38.8
2018-03-24T01:53:10.663Z,38.8
2018-03-24T01:54:00.561Z,38.8
2018-03-24T01:54:49.810Z,38.8
2018-03-24T01:55:40.913Z,38.8
2018-03-24T01:56:30.633Z,38.8
2018-03-24T01:57:18.933Z,38.8
2018-03-24T01:58:10.658Z,38.8
2018-03-24T01:59:00.143Z,38.8
2018-03-24T01:59:50.792Z,38.8
2018-03-24T02:00:40.368Z,38.8
2018-03-24T02:01:31.328Z,38.8
2018-03-24T02:02:21.440Z,38.8
2018-03-24T02:03:10.900Z,38.8
2018-03-24T02:04:00.911Z,38.8
2018-03-24T02:04:51.049Z,38.8
2018-03-24T02:05:41.277Z,38.8
2018-03-24T02:06:31.105Z,38.8
2018-03-24T02:07:21.222Z,38.8
2018-03-24T02:08:12.472Z,38.8
2018-03-24T02:09:01.707Z,38.8
2018-03-24T02:09:51.175Z,38.9
2018-03-24T02:10:42.252Z,38.9
2018-03-24T02:11:31.921Z,38.9
2018-03-24T02:12:22.293Z,38.9
2018-03-24T02:13:11.427Z,38.9
2018-03-24T02:14:02.159Z,38.9
2018-03-24T02:14:51.425Z,38.8
2018-03-24T02:15:41.579Z,38.8
2018-03-24T02:16:32.652Z,38.8
2018-03-24T02:17:22.361Z,38.8
2018-03-24T02:18:12.167Z,38.8
2018-03-24T02:19:02.381Z,38.8
2018-03-24T02:19:51.779Z,38.8
2018-03-24T02:20:41.657Z,38.8
2018-03-24T02:21:32.059Z,38.8
2018-03-24T02:22:21.766Z,38.8
2018-03-24T02:23:14.194Z,38.8
2018-03-24T02:24:03.637Z,38.8
2018-03-24T02:24:54.024Z,38.8
2018-03-24T02:25:44.044Z,38.8
2018-03-24T02:26:34.744Z,38.8
2018-03-24T02:27:24.690Z,38.8
2018-03-24T02:28:14.236Z,38.8
2018-03-24T02:29:03.720Z,38.8
2018-03-24T02:29:53.469Z,38.8
2018-03-24T02:30:43.322Z,38.8
2018-03-24T02:31:31.969Z,38.8
2018-03-24T02:32:23.219Z,38.8
2018-03-24T02:33:12.990Z,38.8
2018-03-24T02:34:01.833Z,38.8
2018-03-24T02:34:53.402Z,38.8
2018-03-24T02:35:44.149Z,38.9
2018-03-24T02:36:32.827Z,38.9
2018-03-24T02:37:23.779Z,38.8
2018-03-24T02:38:12.901Z,38.8
2018-03-24T02:39:04.928Z,38.8
2018-03-24T02:39:52.295Z,38.8
2018-03-24T02:40:44.391Z,38.8
2018-03-24T02:41:33.463Z,38.8
2018-03-24T02:42:23.878Z,38.8
2018-03-24T02:43:13.574Z,38.8
2018-03-24T02:44:04.398Z,38.8
2018-03-24T02:44:53.809Z,38.8
2018-03-24T02:45:43.992Z,38.8
2018-03-24T02:46:33.747Z,38.8
2018-03-24T02:47:24.080Z,38.8
2018-03-24T02:48:15.050Z,38.7
2018-03-24T02:49:03.964Z,38.8
2018-03-24T02:49:53.430Z,38.8
2018-03-24T02:50:45.154Z,38.7
2018-03-24T02:51:34.602Z,38.8
2018-03-24T02:52:24.274Z,38.8
2018-03-24T02:53:14.636Z,38.8
2018-03-24T02:54:05.277Z,38.8
2018-03-24T02:54:54.860Z,38.8
2018-03-24T02:55:44.835Z,38.9
2018-03-24T02:56:36.272Z,38.9
2018-03-24T02:57:24.106Z,38.9
2018-03-24T02:58:15.365Z,38.9
2018-03-24T02:59:05.687Z,38.9
2018-03-24T02:59:55.314Z,38.9
2018-03-24T03:00:45.929Z,38.9
2018-03-24T03:01:34.399Z,38.9
2018-03-24T03:02:26.381Z,38.9
2018-03-24T03:03:15.901Z,38.9
2018-03-24T03:04:06.588Z,38.9
2018-03-24T03:04:56.281Z,38.9
2018-03-24T03:05:47.217Z,38.9
2018-03-24T03:06:37.219Z,38.9
2018-03-24T03:07:27.014Z,39
2018-03-24T03:08:17.041Z,39
2018-03-24T03:09:07.133Z,39
2018-03-24T03:09:56.911Z,39
2018-03-24T03:10:47.475Z,39
2018-03-24T03:11:37.039Z,39.1
2018-03-24T03:12:27.049Z,39.1
2018-03-24T03:13:17.646Z,39.1
2018-03-24T03:14:07.130Z,39.1
2018-03-24T03:14:57.775Z,39.1
2018-03-24T03:15:46.713Z,39.1
2018-03-24T03:16:37.346Z,39.1
2018-03-24T03:17:27.103Z,39.1
2018-03-24T03:18:18.000Z,39.1
2018-03-24T03:19:07.455Z,39.1
2018-03-24T03:19:55.730Z,39.1
2018-03-24T03:20:46.273Z,39
2018-03-24T03:21:36.263Z,39.1
2018-03-24T03:22:26.281Z,39
2018-03-24T03:23:16.501Z,39
2018-03-24T03:24:08.078Z,39
2018-03-24T03:24:56.646Z,39
2018-03-24T03:25:47.786Z,39
2018-03-24T03:26:36.923Z,39.1
2018-03-24T03:27:27.032Z,39.1
2018-03-24T03:28:16.922Z,39.1
2018-03-24T03:29:06.190Z,39.1
2018-03-24T03:29:56.628Z,39.1
2018-03-24T03:30:46.776Z,39.1
2018-03-24T03:31:37.344Z,39.1
2018-03-24T03:32:26.323Z,39.1
2018-03-24T03:33:16.903Z,39.1
2018-03-24T03:34:07.800Z,39.1
2018-03-24T03:34:56.787Z,39.1
2018-03-24T03:35:46.542Z,39.2
2018-03-24T03:36:37.695Z,39.2
2018-03-24T03:37:27.434Z,39.2
2018-03-24T03:38:17.889Z,39.2
2018-03-24T03:39:07.257Z,39.2
2018-03-24T03:39:57.316Z,39.2
2018-03-24T03:40:47.669Z,39.2
2018-03-24T03:41:38.193Z,39.3
2018-03-24T03:42:27.922Z,39.3
2018-03-24T03:43:17.166Z,39.3
2018-03-24T03:44:06.882Z,39.3
2018-03-24T03:44:58.811Z,39.3
2018-03-24T03:45:48.658Z,39.3
2018-03-24T03:46:38.377Z,39.3
2018-03-24T03:47:29.487Z,39.3
2018-03-24T03:48:18.929Z,39.3
2018-03-24T03:49:08.162Z,39.4
2018-03-24T03:49:58.516Z,39.4
2018-03-24T03:50:48.849Z,39.4
2018-03-24T03:51:38.164Z,39.4
2018-03-24T03:52:28.293Z,39.4
2018-03-24T03:53:19.719Z,39.4
2018-03-24T03:54:08.692Z,39.4
2018-03-24T03:54:59.159Z,39.4
2018-03-24T03:55:47.949Z,39.4
2018-03-24T03:56:38.884Z,39.4
2018-03-24T03:57:29.601Z,39.4
2018-03-24T03:58:19.378Z,39.4
2018-03-24T03:59:08.933Z,39.5
2018-03-24T03:59:58.708Z,39.5
2018-03-24T04:00:48.567Z,39.5
2018-03-24T04:01:40.424Z,39.6
2018-03-24T04:02:28.498Z,39.5
2018-03-24T04:03:19.535Z,39.6
2018-03-24T04:04:09.360Z,39.6
2018-03-24T04:04:59.531Z,39.6
2018-03-24T04:05:48.491Z,39.6
2018-03-24T04:06:39.796Z,39.6
2018-03-24T04:07:29.002Z,39.6
2018-03-24T04:08:19.603Z,39.6
2018-03-24T04:09:09.811Z,39.6
2018-03-24T04:09:59.731Z,39.6
2018-03-24T04:10:50.604Z,39.6
2018-03-24T04:11:40.073Z,39.5
2018-03-24T04:12:29.874Z,39.5
2018-03-24T04:13:20.835Z,39.4
2018-03-24T04:14:09.072Z,39.4
2018-03-24T04:14:59.813Z,39.4
2018-03-24T04:15:50.590Z,39.4
2018-03-24T04:16:40.344Z,39.3
2018-03-24T04:17:30.460Z,39.3
2018-03-24T04:18:19.654Z,39.3
2018-03-24T04:19:10.554Z,39.3
2018-03-24T04:20:00.272Z,39.3
2018-03-24T04:20:49.417Z,39.3
2018-03-24T04:21:40.932Z,39.3
2018-03-24T04:22:30.694Z,39.3
2018-03-24T04:23:21.244Z,39.3
2018-03-24T04:24:10.332Z,39.3
2018-03-24T04:25:01.137Z,39.4
2018-03-24T04:25:51.196Z,39.4
2018-03-24T04:26:40.978Z,39.4
2018-03-24T04:27:30.375Z,39.4
2018-03-24T04:28:20.990Z,39.4
2018-03-24T04:29:11.453Z,39.4
2018-03-24T04:30:01.715Z,39.4
2018-03-24T04:30:50.906Z,39.4
2018-03-24T04:31:41.874Z,39.4
2018-03-24T04:32:31.621Z,39.4
2018-03-24T04:33:21.591Z,39.4
2018-03-24T04:34:11.821Z,39.4
2018-03-24T04:35:01.790Z,39.4
2018-03-24T04:35:51.579Z,39.4
2018-03-24T04:36:41.698Z,39.5
2018-03-24T04:37:32.204Z,39.5
2018-03-24T04:38:22.842Z,39.6
2018-03-24T04:39:13.134Z,39.6
2018-03-24T04:40:03.064Z,39.6
2018-03-24T04:40:54.043Z,39.6
2018-03-24T04:41:44.161Z,39.6
2018-03-24T04:42:33.680Z,39.6
2018-03-24T04:43:24.323Z,39.6
2018-03-24T04:44:14.066Z,39.6
2018-03-24T04:45:04.443Z,39.6
2018-03-24T04:45:53.860Z,39.6
2018-03-24T04:46:44.472Z,39.6
2018-03-24T04:47:34.068Z,39.6
2018-03-24T04:48:24.684Z,39.6
2018-03-24T04:49:13.374Z,39.6
2018-03-24T04:50:03.608Z,39.6
2018-03-24T04:50:54.772Z,39.6
2018-03-24T04:51:44.900Z,39.6
2018-03-24T04:52:34.627Z,39.6
2018-03-24T04:53:25.002Z,39.7
2018-03-24T04:54:14.783Z,39.6
2018-03-24T04:55:04.526Z,39.7
2018-03-24T04:55:54.686Z,39.7
2018-03-24T04:56:44.040Z,39.7
2018-03-24T04:57:34.950Z,39.6
2018-03-24T04:58:24.729Z,39.6
2018-03-24T04:59:13.776Z,39.6
2018-03-24T05:00:05.169Z,39.6
2018-03-24T05:00:54.320Z,39.6
2018-03-24T05:01:44.195Z,39.6
2018-03-24T05:02:34.781Z,39.6
2018-03-24T05:03:25.122Z,39.6
2018-03-24T05:04:14.620Z,39.6
2018-03-24T05:05:05.515Z,39.6
2018-03-24T05:05:54.549Z,39.6
2018-03-24T05:06:44.871Z,39.6
2018-03-24T05:07:35.120Z,39.6
2018-03-24T05:08:25.195Z,39.6
2018-03-24T05:09:15.774Z,39.6
2018-03-24T05:10:05.565Z,39.6
2018-03-24T05:10:54.795Z,39.5
2018-03-24T05:11:45.917Z,39.5
2018-03-24T05:12:34.969Z,39.5
2018-03-24T05:13:25.285Z,39.5
2018-03-24T05:14:15.857Z,39.5
2018-03-24T05:15:05.120Z,39.5
2018-03-24T05:15:54.642Z,39.5
2018-03-24T05:16:45.164Z,39.5
2018-03-24T05:17:35.389Z,39.5
2018-03-24T05:18:25.616Z,39.5
2018-03-24T05:19:15.127Z,39.5
2018-03-24T05:20:05.446Z,39.5
2018-03-24T05:20:55.544Z,39.5
2018-03-24T05:21:45.884Z,39.5
2018-03-24T05:22:35.368Z,39.5
2018-03-24T05:23:25.701Z,39.6
2018-03-24T05:24:16.064Z,39.6
2018-03-24T05:25:05.836Z,39.6
2018-03-24T05:25:56.314Z,39.6
2018-03-24T05:26:46.136Z,39.6
2018-03-24T05:27:35.424Z,39.7
2018-03-24T05:28:26.321Z,39.7
2018-03-24T05:29:15.596Z,39.6
2018-03-24T05:30:06.488Z,39.6
2018-03-24T05:30:56.968Z,39.6
2018-03-24T05:31:46.221Z,39.6
2018-03-24T05:32:36.840Z,39.6
2018-03-24T05:33:27.207Z,39.6
2018-03-24T05:34:16.913Z,39.5
2018-03-24T05:35:06.699Z,39.5
2018-03-24T05:35:56.789Z,39.5
2018-03-24T05:36:47.166Z,39.5
2018-03-24T05:37:37.745Z,39.5
2018-03-24T05:38:27.013Z,39.5
2018-03-24T05:39:17.688Z,39.5
2018-03-24T05:40:07.636Z,39.5
2018-03-24T05:40:57.321Z,39.5
2018-03-24T05:41:47.699Z,39.5
2018-03-24T05:42:36.762Z,39.5
2018-03-24T05:43:26.702Z,39.5
2018-03-24T05:44:17.696Z,39.5
2018-03-24T05:45:08.012Z,39.5
2018-03-24T05:45:57.110Z,39.5
2018-03-24T05:46:47.220Z,39.6
2018-03-24T05:47:38.119Z,39.6
2018-03-24T05:48:27.473Z,39.6
2018-03-24T05:49:17.768Z,39.6
2018-03-24T05:50:07.706Z,39.6
2018-03-24T05:50:57.760Z,39.6
2018-03-24T05:51:48.129Z,39.6
2018-03-24T05:52:37.659Z,39.6
2018-03-24T05:53:28.220Z,39.7
2018-03-24T05:54:18.605Z,39.7
2018-03-24T05:55:08.952Z,39.7
2018-03-24T05:55:57.678Z,39.7
2018-03-24T05:56:47.504Z,39.7
2018-03-24T05:57:39.094Z,39.7
2018-03-24T05:58:28.564Z,39.6
2018-03-24T05:59:19.443Z,39.6
2018-03-24T06:00:09.292Z,39.5
2018-03-24T06:00:58.996Z,39.4
2018-03-24T06:01:49.627Z,39.4
2018-03-24T06:02:39.734Z,39.3
2018-03-24T06:03:29.278Z,39.2
2018-03-24T06:04:19.258Z,39.1
2018-03-24T06:05:09.321Z,39
2018-03-24T06:05:59.033Z,38.9
2018-03-24T06:06:49.404Z,38.8
2018-03-24T06:07:39.164Z,38.7
2018-03-24T06:08:29.807Z,38.6
2018-03-24T06:09:19.864Z,38.4
2018-03-24T06:10:09.818Z,38.4
2018-03-24T06:10:59.679Z,38.3
2018-03-24T06:11:49.826Z,38.1
2018-03-24T06:12:40.129Z,38
2018-03-24T06:13:30.148Z,37.9
2018-03-24T06:14:19.930Z,37.7
2018-03-24T06:15:10.248Z,37.4
2018-03-24T06:16:00.344Z,37.2
2018-03-24T06:16:49.745Z,36.8
2018-03-24T06:17:40.402Z,36.4
2018-03-24T06:18:30.764Z,36.1
2018-03-24T06:19:20.361Z,35.6
2018-03-24T06:20:10.297Z,35.3
2018-03-24T06:21:00.628Z,34.8
2018-03-24T06:21:50.262Z,34.4
2018-03-24T06:22:39.937Z,34.1
2018-03-24T06:23:31.074Z,33.8
2018-03-24T06:24:20.612Z,33.4
2018-03-24T06:25:11.256Z,33.2
2018-03-24T06:26:01.084Z,33
2018-03-24T06:26:51.067Z,32.8
2018-03-24T06:27:41.475Z,32.6
2018-03-24T06:28:31.451Z,32.4
2018-03-24T06:29:21.513Z,32.3
2018-03-24T06:30:11.300Z,32.1
2018-03-24T06:31:01.043Z,32
2018-03-24T06:31:51.130Z,31.9
2018-03-24T06:32:41.187Z,31.8
2018-03-24T06:33:31.246Z,31.6
2018-03-24T06:34:21.093Z,31.5
2018-03-24T06:35:11.433Z,31.4
2018-03-24T06:36:01.158Z,31.3
2018-03-24T06:36:51.458Z,31.2
2018-03-24T06:37:42.035Z,31.1
2018-03-24T06:38:31.935Z,31
2018-03-24T06:39:21.095Z,30.9
2018-03-24T06:40:11.995Z,30.9
2018-03-24T06:41:01.975Z,30.8
2018-03-24T06:41:52.084Z,30.7
2018-03-24T06:42:41.694Z,30.6
2018-03-24T06:43:31.898Z,30.5
2018-03-24T06:44:21.513Z,30.4
2018-03-24T06:45:11.766Z,30.4
2018-03-24T06:46:02.093Z,30.3
2018-03-24T06:46:51.678Z,30.3
2018-03-24T06:47:42.236Z,30.3
2018-03-24T06:48:32.555Z,30.2
2018-03-24T06:49:22.662Z,30.1
2018-03-24T06:50:12.922Z,30.1
2018-03-24T06:51:02.496Z,30
2018-03-24T06:51:51.606Z,29.9
2018-03-24T06:52:42.564Z,29.9
2018-03-24T06:53:32.891Z,29.9
2018-03-24T06:54:22.216Z,29.8
2018-03-24T06:55:11.900Z,29.8
2018-03-24T06:56:02.759Z,29.8
2018-03-24T06:56:52.814Z,29.7
2018-03-24T06:57:42.599Z,29.6
2018-03-24T06:58:32.903Z,29.6
2018-03-24T06:59:23.372Z,29.6
2018-03-24T07:00:13.358Z,29.5
2018-03-24T07:01:02.957Z,29.4
2018-03-24T07:01:53.215Z,29.4
2018-03-24T07:02:43.530Z,29.4
2018-03-24T07:03:32.725Z,29.3
2018-03-24T07:04:23.384Z,29.3
2018-03-24T07:05:13.648Z,29.3
2018-03-24T07:06:03.418Z,29.3
2018-03-24T07:06:53.786Z,29.2
2018-03-24T07:07:44.244Z,29.2
2018-03-24T07:08:33.591Z,29.1
2018-03-24T07:09:23.679Z,29.1
2018-03-24T07:10:14.285Z,29.1
2018-03-24T07:11:04.311Z,29
2018-03-24T07:11:53.841Z,28.9
2018-03-24T07:12:43.643Z,28.9
2018-03-24T07:13:34.268Z,28.9
2018-03-24T07:14:23.705Z,28.9
2018-03-24T07:15:13.862Z,28.8
2018-03-24T07:16:04.127Z,28.8
2018-03-24T07:16:54.171Z,28.8
2018-03-24T07:17:44.540Z,28.8
2018-03-24T07:18:34.547Z,28.8
2018-03-24T07:19:24.612Z,28.7
2018-03-24T07:20:14.395Z,28.6
2018-03-24T07:21:04.991Z,28.6
2018-03-24T07:21:54.485Z,28.6
2018-03-24T07:22:44.565Z,28.6
2018-03-24T07:23:35.145Z,28.6
2018-03-24T07:24:24.931Z,28.5
2018-03-24T07:25:15.333Z,28.4
2018-03-24T07:26:05.398Z,28.4
2018-03-24T07:26:54.887Z,28.4
2018-03-24T07:27:45.603Z,28.4
2018-03-24T07:28:35.588Z,28.3
2018-03-24T07:29:24.496Z,28.3
2018-03-24T07:30:15.144Z,28.3
2018-03-24T07:31:04.940Z,28.3
2018-03-24T07:31:55.211Z,28.2
2018-03-24T07:32:45.365Z,28.2
2018-03-24T07:33:35.097Z,28.2
2018-03-24T07:34:24.624Z,28.1
2018-03-24T07:35:15.445Z,28.1
2018-03-24T07:36:06.037Z,28.1
2018-03-24T07:36:55.392Z,28.1
2018-03-24T07:37:44.864Z,28
2018-03-24T07:38:35.498Z,28
2018-03-24T07:39:26.357Z,28
2018-03-24T07:40:16.010Z,27.9
2018-03-24T07:41:05.078Z,27.9
2018-03-24T07:41:55.098Z,27.9
2018-03-24T07:42:45.635Z,27.9
2018-03-24T07:43:36.299Z,27.9
2018-03-24T07:46:06.177Z,27.8
2018-03-24T07:46:56.312Z,27.8
2018-03-24T07:47:46.020Z,27.7
2018-03-24T07:48:35.825Z,27.6
2018-03-24T07:49:26.464Z,27.6
2018-03-24T07:50:16.514Z,27.5
2018-03-24T07:51:06.560Z,27.4
2018-03-24T07:51:56.846Z,27.4
2018-03-24T07:52:46.102Z,27.3
2018-03-24T07:53:37.220Z,27.2
2018-03-24T07:54:27.046Z,27.1
2018-03-24T07:55:17.042Z,27.1
2018-03-24T07:56:07.151Z,26.9
2018-03-24T07:56:56.599Z,26.9
2018-03-24T07:57:46.396Z,26.8
2018-03-24T07:58:36.696Z,26.8
2018-03-24T07:59:27.631Z,26.7
2018-03-24T08:00:17.401Z,26.6
2018-03-24T08:01:07.803Z,26.6
2018-03-24T08:01:57.506Z,26.5
2018-03-24T08:02:47.610Z,26.4
2018-03-24T08:03:37.631Z,26.4
2018-03-24T08:04:28.101Z,26.3
2018-03-24T08:05:17.555Z,26.3
2018-03-24T08:06:07.531Z,26.2
2018-03-24T08:06:57.325Z,26.2
2018-03-24T08:07:48.020Z,26.1
2018-03-24T08:08:37.202Z,26.1
2018-03-24T08:09:27.849Z,26
2018-03-24T08:10:17.350Z,25.9
2018-03-24T08:11:07.645Z,25.9
2018-03-24T08:11:57.970Z,25.8
2018-03-24T08:12:47.954Z,25.8
2018-03-24T08:13:37.760Z,25.8
2018-03-24T08:14:27.798Z,25.7
2018-03-24T08:15:18.396Z,25.7
2018-03-24T08:16:08.283Z,25.6
2018-03-24T08:16:56.988Z,25.6
2018-03-24T08:17:46.729Z,25.6
2018-03-24T08:18:36.880Z,25.5
2018-03-24T08:19:26.405Z,25.4
2018-03-24T08:20:16.386Z,25.4
2018-03-24T08:21:06.757Z,25.4
2018-03-24T08:21:57.805Z,25.4
2018-03-24T08:22:46.268Z,25.3
2018-03-24T08:23:37.394Z,25.3
2018-03-24T08:24:28.029Z,25.3
2018-03-24T08:25:17.403Z,25.2
2018-03-24T08:26:07.414Z,25.2
2018-03-24T08:26:57.348Z,25.1
2018-03-24T08:27:47.585Z,25.1
2018-03-24T08:28:38.160Z,25.1
2018-03-24T08:29:27.017Z,25
2018-03-24T08:30:16.769Z,24.9
2018-03-24T08:31:07.125Z,24.9
2018-03-24T08:31:57.610Z,24.8
2018-03-24T08:32:47.464Z,24.8
2018-03-24T08:33:37.492Z,24.8
2018-03-24T08:34:28.476Z,24.8
2018-03-24T08:35:17.697Z,24.7
2018-03-24T08:36:07.559Z,24.6
2018-03-24T08:36:57.216Z,24.6
2018-03-24T08:37:48.100Z,24.6
2018-03-24T08:38:36.559Z,24.5
2018-03-24T08:39:27.596Z,24.5
2018-03-24T08:40:17.679Z,24.4
2018-03-24T08:41:08.089Z,24.4
2018-03-24T08:41:58.427Z,24.4
2018-03-24T08:42:48.421Z,24.3
2018-03-24T08:43:39.250Z,24.3
2018-03-24T08:44:28.423Z,24.3
2018-03-24T08:45:18.278Z,24.3
2018-03-24T08:46:07.951Z,24.2
2018-03-24T08:46:58.186Z,24.1
2018-03-24T08:47:48.811Z,24.1
2018-03-24T08:48:38.326Z,24.1
2018-03-24T08:49:28.971Z,24.1
2018-03-24T08:50:19.118Z,24.1
2018-03-24T08:51:09.282Z,24
2018-03-24T08:51:59.013Z,23.9
2018-03-24T08:52:48.488Z,23.9
2018-03-24T08:53:40.407Z,23.9
2018-03-24T08:54:28.486Z,23.9
2018-03-24T08:55:19.108Z,23.8
2018-03-24T08:56:08.379Z,23.8
2018-03-24T08:56:59.676Z,23.8
2018-03-24T08:57:49.151Z,23.7
2018-03-24T08:58:39.764Z,23.7
2018-03-24T08:59:29.664Z,23.6
2018-03-24T09:00:19.123Z,23.6
2018-03-24T09:01:10.484Z,23.6
2018-03-24T09:01:59.689Z,23.6
2018-03-24T09:02:49.733Z,23.6
2018-03-24T09:03:39.424Z,23.5
2018-03-24T09:04:30.143Z,23.5
2018-03-24T09:05:19.711Z,23.5
2018-03-24T09:06:10.299Z,23.4
2018-03-24T09:07:01.003Z,23.4
2018-03-24T09:07:49.728Z,23.4
2018-03-24T09:08:40.336Z,23.4
2018-03-24T09:09:30.802Z,23.4
2018-03-24T09:10:20.050Z,23.4
2018-03-24T09:11:10.197Z,23.3
2018-03-24T09:12:00.156Z,23.3
2018-03-24T09:12:51.102Z,23.3
2018-03-24T09:13:40.777Z,23.3
2018-03-24T09:14:30.086Z,23.2
2018-03-24T09:15:21.946Z,23.2
2018-03-24T09:16:11.295Z,23.1
2018-03-24T09:17:01.152Z,23.1
2018-03-24T09:17:51.353Z,23.1
2018-03-24T09:18:42.557Z,23.1
2018-03-24T09:19:30.487Z,23
2018-03-24T09:20:22.051Z,23
2018-03-24T09:21:11.820Z,22.9
2018-03-24T09:22:01.075Z,22.9
2018-03-24T09:22:50.729Z,22.9
2018-03-24T09:23:39.982Z,22.9
2018-03-24T09:24:30.477Z,22.9
2018-03-24T09:25:20.248Z,22.9
2018-03-24T09:26:11.659Z,22.9
2018-03-24T09:27:01.704Z,22.8
2018-03-24T09:27:52.332Z,22.8
2018-03-24T09:28:41.762Z,22.8
2018-03-24T09:29:33.519Z,22.8
2018-03-24T09:30:22.684Z,22.8
2018-03-24T09:31:11.619Z,22.8
2018-03-24T09:32:01.034Z,22.8
2018-03-24T09:32:52.051Z,22.8
2018-03-24T09:33:39.913Z,22.7
2018-03-24T09:34:32.427Z,22.7
2018-03-24T09:35:22.494Z,22.6
2018-03-24T09:36:12.028Z,22.6
2018-03-24T09:37:00.917Z,22.6
2018-03-24T09:37:51.926Z,22.6
2018-03-24T09:38:42.774Z,22.6
2018-03-24T09:39:31.313Z,22.6
2018-03-24T09:40:22.465Z,22.6
2018-03-24T09:41:11.919Z,22.6
2018-03-24T09:42:01.668Z,22.6
2018-03-24T09:42:53.004Z,22.5
2018-03-24T09:43:42.466Z,22.5
2018-03-24T09:44:31.921Z,22.5
2018-03-24T09:45:22.274Z,22.5
2018-03-24T09:46:12.973Z,22.4
2018-03-24T09:47:02.271Z,22.4
2018-03-24T09:47:53.483Z,22.4
2018-03-24T09:48:41.276Z,22.4
2018-03-24T17:51:54.081Z,38.3
2018-03-24T17:52:44.609Z,38.4
2018-03-24T17:53:34.695Z,38.5
2018-03-24T17:54:24.160Z,38.6
2018-03-24T17:55:15.718Z,38.6
2018-03-24T17:56:04.813Z,38.6
2018-03-24T17:56:55.231Z,38.7
2018-03-24T17:57:44.518Z,38.8
2018-03-24T17:58:35.033Z,38.8
2018-03-24T17:59:25.550Z,38.8
2018-03-24T18:00:15.690Z,38.8
2018-03-24T18:01:05.252Z,38.9
2018-03-24T18:01:55.163Z,38.9
2018-03-24T18:02:45.204Z,38.9
2018-03-24T18:03:34.970Z,38.9
2018-03-24T18:04:26.180Z,38.9
2018-03-24T18:05:15.733Z,39
2018-03-24T18:06:05.989Z,39
2018-03-24T18:06:57.110Z,39
2018-03-24T18:07:46.604Z,39
2018-03-24T18:08:35.650Z,39
2018-03-24T18:09:27.324Z,39.1
2018-03-24T18:10:17.807Z,39.1
2018-03-24T18:11:06.917Z,39.1
2018-03-24T18:11:57.797Z,39.1
2018-03-24T18:12:47.581Z,39.1
2018-03-24T18:13:37.181Z,39
2018-03-24T18:14:26.676Z,39
2018-03-24T18:15:17.234Z,39
2018-03-24T18:16:08.073Z,38.9
2018-03-24T18:16:57.903Z,38.9
2018-03-24T18:17:47.954Z,38.8
2018-03-24T18:18:38.056Z,38.8
2018-03-24T18:19:28.339Z,38.7
2018-03-24T18:20:17.895Z,38.6
2018-03-24T18:21:07.377Z,38.6
2018-03-24T18:21:58.275Z,38.5
2018-03-24T18:22:48.048Z,38.5
2018-03-24T18:23:37.781Z,38.4
2018-03-24T18:24:28.203Z,38.4
2018-03-24T18:25:18.198Z,38.4
2018-03-24T18:26:08.310Z,38.4
2018-03-24T18:26:59.144Z,38.4
2018-03-24T18:27:48.904Z,38.4
2018-03-24T18:28:37.846Z,38.4
2018-03-24T18:29:26.926Z,38.4
2018-03-24T18:30:18.273Z,38.4
2018-03-24T18:31:08.868Z,38.4
2018-03-24T18:31:58.931Z,38.4
2018-03-24T18:32:48.980Z,38.5
2018-03-24T18:33:38.525Z,38.5
2018-03-24T18:34:29.138Z,38.6
2018-03-24T18:35:19.618Z,38.6
2018-03-24T18:36:07.237Z,38.6
2018-03-24T18:36:56.788Z,38.7
2018-03-24T18:37:47.024Z,38.8
2018-03-24T18:38:38.023Z,38.8
2018-03-24T18:39:28.826Z,38.8
2018-03-24T18:40:17.232Z,38.9
2018-03-24T18:41:07.644Z,38.9
2018-03-24T18:41:57.156Z,39
2018-03-24T18:42:47.762Z,39.1
2018-03-24T18:43:38.155Z,39.1
2018-03-24T18:44:29.830Z,39.1
2018-03-24T18:45:19.787Z,39.1
2018-03-24T18:46:10.099Z,39.1
2018-03-24T18:46:59.359Z,39.2
2018-03-24T18:47:49.759Z,39.2
2018-03-24T18:48:40.101Z,39.2
2018-03-24T18:49:29.874Z,39.2
2018-03-24T18:50:19.823Z,39.2
2018-03-24T18:51:10.978Z,39.1
2018-03-24T18:52:00.223Z,39.1
2018-03-24T18:52:50.869Z,39.1
2018-03-24T18:53:40.569Z,39
2018-03-24T18:54:30.548Z,38.9
2018-03-24T18:55:20.399Z,38.9
2018-03-24T18:56:11.299Z,38.8
2018-03-24T18:57:01.114Z,38.8
2018-03-24T18:57:50.832Z,38.7
2018-03-24T18:58:40.707Z,38.6
2018-03-24T18:59:30.698Z,38.6
2018-03-24T19:00:21.545Z,38.4
2018-03-24T19:01:10.895Z,38.4
2018-03-24T19:02:01.147Z,38.4
2018-03-24T19:02:51.196Z,38.4
2018-03-24T19:03:40.705Z,38.3
2018-03-24T19:04:31.939Z,38.3
2018-03-24T19:05:21.649Z,38.3
2018-03-24T19:06:12.006Z,38.3
2018-03-24T19:07:02.028Z,38.3
2018-03-24T19:07:51.904Z,38.4
2018-03-24T19:08:41.653Z,38.4
2018-03-24T19:09:31.333Z,38.4
2018-03-24T19:10:21.973Z,38.5
2018-03-24T19:11:12.067Z,38.6
2018-03-24T19:12:02.448Z,38.6
2018-03-24T19:12:51.892Z,38.7